Pagrindinis puslapis
METAR-TAF:

METAR-TAF

Oro uostai :

Kalama, Čilė

platuma: 22-29-59S, ilguma: 068-54-29W, Aukštis: 2299 m

Dabartinis oras

Ataskaita buvo paskelbta 39 minutes, ne 17:00 UTC
Vėjas 23 kt iš Vakarų
Temperatūra 23°C
Drėgmė 13%
Slėgis 1023 hPa
Matomumas 10 km arba daugiau

METAR: SCCF 271700Z AUTO 28023KT 9999 NCD 23/M07 Q1023

Laikas: 14:39 (17:39 UTC)

Prognozė

Ataskaita buvo paskelbta 7 valandos ir 29 minutes, ne 10:10 UTC
Prognozė galioja nuo 27 metu 12 UTC su 28 metu 12 UTC
Vėjas 15 kt iš Rytų/Pietryčių
Matomumas 10 km arba daugiau
nėra debesų žemiau 1500 m ir nėra kamuolinių lietaus debesų
Tapsmas
nuo 27 metu 15 UTC su 27 metu 17 UTC
Vėjas 18 kt iš Vakarų
Laikinai
nuo 27 metu 17 UTC su 27 metu 22 UTC
Vėjas 22 kt iš Vakarų su gūsio iki 32 kt
Tapsmas
nuo 28 metu 00 UTC su 28 metu 02 UTC
Vėjas 12 kt iš Vakarų
Tapsmas
nuo 28 metu 04 UTC su 28 metu 06 UTC
Vėjas 15 kt iš Rytų/Pietryčių

TAF: SCCF 271010Z 2712/2812 11015KT CAVOK TX23/2718Z TN02/2809Z BECMG 2715/2717 27018KT TEMPO 2717/2722 28022G32KT BECMG 2800/2802 26012KT BECMG 2804/2806 11015KT

Orai ataskaitas ir orų prognozės (METAR, TAF).

turimą stotys yra geltonos ir raudonos taškus žemėlapyje.

Perkelti pele per norėdami pamatyti stoties vardą.

Tada spustelėkite, norėdami matyti oro stebėjimo ir prognozės.

Norėdami pakeisti žemėlapį: spustelėkite ant žalios mygtukų su juodo kryžiaus žemyn,; žalią mygtuką su brūkšneliu, jei norite nutolinti; arba žalių rodyklių gretimoms žemėlapius.


METAR-TAF: